createdAt,value
2024-03-12T00:01:07.561Z,4.90
2024-03-12T00:03:07.889Z,4.90
2024-03-12T00:05:08.217Z,5.00
2024-03-12T00:07:08.574Z,4.90
2024-03-12T00:09:08.907Z,4.80
2024-03-12T00:11:09.663Z,5.10
2024-03-12T00:13:10.139Z,5.20
2024-03-12T00:15:10.429Z,4.80
2024-03-12T00:17:10.728Z,5.00
2024-03-12T00:19:11.145Z,5.00
2024-03-12T00:21:11.473Z,4.40
2024-03-12T00:23:11.758Z,5.00
2024-03-12T00:25:12.058Z,4.90
2024-03-12T00:27:12.364Z,5.30
2024-03-12T00:29:12.661Z,4.80
2024-03-12T00:31:12.973Z,4.80
2024-03-12T00:33:14.203Z,4.70
2024-03-12T00:35:14.468Z,4.80
2024-03-12T00:37:14.798Z,4.60
2024-03-12T00:39:15.066Z,4.50
2024-03-12T00:41:15.437Z,4.50
2024-03-12T00:43:15.866Z,4.40
2024-03-12T00:45:16.154Z,4.40
2024-03-12T00:47:16.489Z,4.80
2024-03-12T00:49:16.761Z,4.80
2024-03-12T00:51:17.051Z,4.30
2024-03-12T00:53:17.399Z,4.20
2024-03-12T00:55:17.755Z,4.20
2024-03-12T00:57:18.078Z,4.40
2024-03-12T00:59:18.358Z,4.40
2024-03-12T01:01:18.763Z,4.90
2024-03-12T01:03:19.084Z,4.70
2024-03-12T01:05:19.372Z,4.40
2024-03-12T01:07:19.643Z,4.50
2024-03-12T01:09:19.993Z,4.70
2024-03-12T01:11:20.291Z,4.30
2024-03-12T01:13:20.527Z,4.40
2024-03-12T01:15:20.854Z,4.30
2024-03-12T01:17:21.130Z,4.40
2024-03-12T01:19:21.401Z,4.60
2024-03-12T01:21:21.833Z,4.60
2024-03-12T01:23:22.244Z,4.30
2024-03-12T01:25:22.548Z,4.50
2024-03-12T01:27:22.833Z,4.60
2024-03-12T01:29:23.116Z,4.30
2024-03-12T01:31:23.474Z,4.60
2024-03-12T01:33:23.740Z,4.70
2024-03-12T01:35:23.988Z,4.30
2024-03-12T01:37:24.300Z,4.70
2024-03-12T01:39:24.790Z,4.40
2024-03-12T01:41:25.113Z,4.70
2024-03-12T01:43:25.377Z,5.10
2024-03-12T01:45:25.898Z,4.90
2024-03-12T01:47:26.313Z,4.60
2024-03-12T01:49:26.587Z,5.30
2024-03-12T01:51:26.900Z,4.90
2024-03-12T01:53:27.188Z,4.80
2024-03-12T01:55:27.516Z,4.90
2024-03-12T01:57:27.838Z,5.10
2024-03-12T01:59:28.124Z,5.20
2024-03-12T02:01:28.557Z,4.90
2024-03-12T02:03:28.870Z,5.20
2024-03-12T02:05:29.204Z,5.00
2024-03-12T02:07:29.776Z,5.10
2024-03-12T02:09:30.219Z,5.20
2024-03-12T02:11:30.600Z,4.90
2024-03-12T02:13:32.794Z,5.50
2024-03-12T02:15:33.107Z,5.00
2024-03-12T02:17:33.588Z,5.00
2024-03-12T02:20:19.380Z,4.50
2024-03-12T02:22:19.741Z,4.70
2024-03-12T02:24:20.170Z,5.00
2024-03-12T02:26:20.610Z,4.90
2024-03-12T02:28:21.045Z,4.90
2024-03-12T02:30:21.509Z,4.60
2024-03-12T02:32:21.987Z,5.40
2024-03-12T02:34:22.444Z,5.00
2024-03-12T02:36:22.809Z,4.80
2024-03-12T02:38:23.183Z,4.80
2024-03-12T02:40:23.520Z,4.50
2024-03-12T02:42:23.925Z,4.30
2024-03-12T02:44:24.257Z,4.40
2024-03-12T02:46:24.655Z,4.80
2024-03-12T02:48:25.001Z,4.50
2024-03-12T02:50:25.293Z,4.80
2024-03-12T02:52:25.577Z,4.10
2024-03-12T02:54:25.971Z,4.30
2024-03-12T02:56:26.282Z,4.60
2024-03-12T02:58:26.677Z,4.40
2024-03-12T03:00:27.153Z,4.70
2024-03-12T03:02:27.456Z,4.40
2024-03-12T03:04:27.953Z,4.40
2024-03-12T03:06:28.294Z,4.10
2024-03-12T03:08:28.626Z,4.20
2024-03-12T03:10:28.990Z,4.30
2024-03-12T03:12:29.277Z,4.20
2024-03-12T03:14:29.640Z,4.30
2024-03-12T03:16:29.901Z,4.20
2024-03-12T03:18:30.247Z,4.00
2024-03-12T03:20:30.527Z,4.30
2024-03-12T03:22:30.817Z,4.30
2024-03-12T03:24:31.160Z,4.20
2024-03-12T03:26:31.453Z,4.30
2024-03-12T03:28:31.725Z,4.00
2024-03-12T03:30:32.073Z,4.20
2024-03-12T03:32:32.369Z,4.30
2024-03-12T03:34:32.678Z,4.00
2024-03-12T03:36:33.009Z,4.00
2024-03-12T03:38:33.356Z,4.00
2024-03-12T03:40:33.761Z,4.40
2024-03-12T03:42:34.226Z,4.10
2024-03-12T03:44:34.551Z,3.90
2024-03-12T03:46:34.876Z,4.00
2024-03-12T03:48:35.578Z,4.30
2024-03-12T03:50:35.890Z,3.90
2024-03-12T03:52:36.204Z,3.90
2024-03-12T03:54:36.576Z,4.10
2024-03-12T03:56:37.045Z,4.40
2024-03-12T03:58:37.367Z,4.00
2024-03-12T04:00:37.763Z,4.10
2024-03-12T04:02:38.122Z,4.50
2024-03-12T04:04:38.377Z,4.00
2024-03-12T04:06:38.799Z,4.20
2024-03-12T04:08:39.095Z,4.00
2024-03-12T04:10:39.403Z,4.40
2024-03-12T04:12:39.767Z,4.30
2024-03-12T04:14:40.040Z,4.20
2024-03-12T04:16:40.315Z,4.30
2024-03-12T04:18:40.731Z,4.50
2024-03-12T04:20:41.082Z,4.40
2024-03-12T04:22:41.440Z,4.50
2024-03-12T04:24:41.825Z,4.40
2024-03-12T04:26:42.160Z,4.60
2024-03-12T04:28:42.572Z,5.00
2024-03-12T04:30:42.921Z,4.50
2024-03-12T04:32:43.377Z,4.50
2024-03-12T04:34:43.696Z,4.60
2024-03-12T04:36:44.146Z,4.70
2024-03-12T04:38:44.516Z,5.20
2024-03-12T04:40:44.761Z,4.80
2024-03-12T04:42:45.326Z,4.80
2024-03-12T04:44:45.624Z,5.00
2024-03-12T04:46:45.936Z,5.00
2024-03-12T04:48:46.491Z,4.70
2024-03-12T04:50:46.822Z,5.00
2024-03-12T04:52:47.112Z,4.70
2024-03-12T04:54:47.519Z,5.00
2024-03-12T04:56:47.781Z,4.80
2024-03-12T04:58:48.084Z,4.60
2024-03-12T05:00:48.469Z,4.80
2024-03-12T05:02:48.850Z,5.00
2024-03-12T05:04:49.110Z,4.80
2024-03-12T05:06:49.604Z,4.50
2024-03-12T05:08:49.910Z,5.10
2024-03-12T05:10:50.279Z,4.90
2024-03-12T05:12:50.622Z,5.10
2024-03-12T05:14:50.907Z,4.90
2024-03-12T05:16:51.238Z,5.20
2024-03-12T05:18:51.727Z,5.30
2024-03-12T05:20:52.526Z,5.60
2024-03-12T05:22:52.880Z,5.60
2024-03-12T05:24:53.408Z,5.40
2024-03-12T05:26:53.856Z,5.50
2024-03-12T05:28:54.256Z,5.80
2024-03-12T05:30:54.626Z,5.20
2024-03-12T05:32:55.571Z,5.40
2024-03-12T05:34:56.140Z,5.10
2024-03-12T05:36:56.558Z,4.70
2024-03-12T05:38:56.825Z,4.80
2024-03-12T05:40:57.275Z,5.00
2024-03-12T05:43:39.832Z,4.90
2024-03-12T05:45:40.220Z,4.80
2024-03-12T05:48:22.995Z,4.70
2024-03-12T05:50:23.371Z,4.70
2024-03-12T05:52:23.723Z,4.80
2024-03-12T05:54:24.047Z,5.30
2024-03-12T05:56:24.291Z,4.90
2024-03-12T05:58:24.626Z,5.50
2024-03-12T06:00:24.892Z,5.20
2024-03-12T06:02:25.222Z,5.10
2024-03-12T06:04:25.550Z,5.10
2024-03-12T06:06:25.836Z,5.20
2024-03-12T06:08:26.134Z,5.00
2024-03-12T06:10:31.402Z,5.10
2024-03-12T06:12:31.858Z,5.20
2024-03-12T06:14:32.262Z,5.20
2024-03-12T06:16:32.578Z,5.10
2024-03-12T06:18:32.927Z,6.10
2024-03-12T06:20:33.213Z,6.00
2024-03-12T06:22:33.589Z,5.70
2024-03-12T06:24:34.036Z,6.70
2024-03-12T06:26:34.774Z,6.30
2024-03-12T06:28:35.596Z,6.80
2024-03-12T06:30:35.914Z,6.80
2024-03-12T06:32:36.317Z,6.30
2024-03-12T06:34:36.647Z,6.70
2024-03-12T06:36:36.942Z,6.40
2024-03-12T06:38:37.292Z,7.20
2024-03-12T06:40:37.525Z,7.10
2024-03-12T06:42:37.857Z,7.60
2024-03-12T06:44:38.135Z,7.80
2024-03-12T06:46:38.446Z,8.10
2024-03-12T06:48:38.776Z,8.30
2024-03-12T06:50:39.055Z,8.20
2024-03-12T06:52:39.356Z,7.70
2024-03-12T06:54:39.665Z,7.70
2024-03-12T06:56:39.949Z,8.00
2024-03-12T06:58:40.290Z,8.10
2024-03-12T07:00:40.671Z,8.10
2024-03-12T07:02:40.911Z,7.60
2024-03-12T07:04:41.280Z,8.00
2024-03-12T07:06:41.537Z,8.50
2024-03-12T07:08:41.869Z,8.20
2024-03-12T07:10:42.313Z,8.00
2024-03-12T07:12:42.742Z,8.70
2024-03-12T07:14:43.022Z,8.50
2024-03-12T07:16:43.323Z,7.90
2024-03-12T07:18:43.640Z,8.20
2024-03-12T07:20:43.921Z,9.40
2024-03-12T07:22:46.173Z,9.50
2024-03-12T07:24:47.156Z,9.60
2024-03-12T07:26:47.449Z,10.00
2024-03-12T07:28:47.725Z,9.50
2024-03-12T07:30:48.015Z,9.50
2024-03-12T07:32:48.511Z,9.10
2024-03-12T07:34:48.827Z,9.10
2024-03-12T07:36:49.221Z,9.80
2024-03-12T07:38:49.514Z,9.10
2024-03-12T07:40:49.804Z,9.40
2024-03-12T07:42:50.209Z,10.00
2024-03-12T07:44:50.514Z,9.90
2024-03-12T07:46:50.831Z,8.70
2024-03-12T07:48:51.252Z,8.90
2024-03-12T07:50:51.595Z,8.90
2024-03-12T07:52:51.889Z,8.30
2024-03-12T07:54:52.306Z,8.90
2024-03-12T07:56:52.601Z,8.90
2024-03-12T07:58:52.914Z,8.60
2024-03-12T08:00:53.187Z,8.60
2024-03-12T08:02:53.738Z,9.50
2024-03-12T08:04:54.098Z,8.50
2024-03-12T08:06:54.640Z,9.00
2024-03-12T08:08:55.058Z,8.80
2024-03-12T08:10:55.510Z,8.70
2024-03-12T08:12:55.919Z,9.20
2024-03-12T08:14:56.422Z,9.20
2024-03-12T08:16:56.874Z,9.30
2024-03-12T08:18:57.317Z,9.20
2024-03-12T08:20:57.885Z,9.10
2024-03-12T08:22:58.311Z,9.30
2024-03-12T08:24:58.851Z,9.00
2024-03-12T08:26:59.176Z,8.80
2024-03-12T08:28:59.629Z,9.00
2024-03-12T08:31:05.085Z,9.20
2024-03-12T08:33:05.297Z,9.20
2024-03-12T08:35:05.737Z,8.80
2024-03-12T08:37:06.148Z,9.10
2024-03-12T08:39:06.518Z,9.10
2024-03-12T08:41:06.941Z,8.80
2024-03-12T08:43:09.079Z,8.30
2024-03-12T08:45:09.761Z,8.20
2024-03-12T08:47:51.659Z,9.20
2024-03-12T08:49:51.985Z,8.70
2024-03-12T08:51:52.278Z,8.70
2024-03-12T08:53:52.664Z,8.90
2024-03-12T08:55:53.159Z,9.40
2024-03-12T08:57:53.535Z,8.40
2024-03-12T08:59:54.067Z,8.20
2024-03-12T09:01:54.460Z,8.70
2024-03-12T09:03:54.860Z,8.70
2024-03-12T09:05:55.207Z,9.00
2024-03-12T09:07:56.576Z,8.80
2024-03-12T09:09:56.931Z,8.50
2024-03-12T09:11:57.358Z,7.90
2024-03-12T09:13:57.768Z,7.50
2024-03-12T09:15:58.078Z,8.50
2024-03-12T09:17:58.526Z,8.10
2024-03-12T09:19:59.195Z,7.60
2024-03-12T09:21:59.767Z,7.70
2024-03-12T09:24:02.261Z,7.50
2024-03-12T09:26:03.231Z,8.10
2024-03-12T09:28:03.871Z,7.90
2024-03-12T09:30:04.363Z,8.00
2024-03-12T09:32:04.782Z,7.60
2024-03-12T09:34:05.236Z,7.60
2024-03-12T09:36:05.667Z,7.70
2024-03-12T09:38:06.105Z,7.90
2024-03-12T09:40:06.899Z,7.80
2024-03-12T09:42:07.338Z,7.40
2024-03-12T09:44:07.998Z,8.10
2024-03-12T09:46:08.571Z,8.50
2024-03-12T09:48:09.130Z,9.20
2024-03-12T09:50:09.639Z,8.80
2024-03-12T09:52:10.129Z,8.90
2024-03-12T09:54:10.751Z,9.20
2024-03-12T09:56:11.128Z,9.30
2024-03-12T09:58:11.778Z,9.30
2024-03-12T10:00:12.334Z,8.90
2024-03-12T10:02:12.958Z,9.50
2024-03-12T10:04:13.377Z,8.80
2024-03-12T10:06:13.738Z,9.00
2024-03-12T10:08:14.051Z,8.90
2024-03-12T10:10:14.393Z,9.00
2024-03-12T10:12:14.700Z,9.30
2024-03-12T10:14:14.964Z,8.70
2024-03-12T10:16:15.377Z,8.70
2024-03-12T10:18:15.690Z,8.50
2024-03-12T10:20:15.976Z,8.70
2024-03-12T10:22:16.298Z,8.30
2024-03-12T10:24:16.606Z,8.40
2024-03-12T10:26:16.960Z,8.50
2024-03-12T10:28:17.289Z,8.60
2024-03-12T10:30:17.607Z,9.10
2024-03-12T10:32:17.910Z,9.70
2024-03-12T10:34:18.352Z,9.20
2024-03-12T10:36:18.719Z,9.40
2024-03-12T10:38:18.996Z,9.10
2024-03-12T10:40:19.437Z,9.30
2024-03-12T10:42:24.600Z,8.30
2024-03-12T10:44:24.844Z,9.40
2024-03-12T10:46:25.323Z,9.10
2024-03-12T10:48:25.618Z,8.70
2024-03-12T10:50:25.944Z,9.20
2024-03-12T10:52:26.240Z,8.90
2024-03-12T10:54:26.564Z,9.10
2024-03-12T10:56:28.813Z,8.70
2024-03-12T10:58:29.104Z,8.70
2024-03-12T11:00:29.451Z,9.40
2024-03-12T11:02:29.904Z,9.10
2024-03-12T11:04:30.128Z,9.00
2024-03-12T11:06:30.548Z,9.70
2024-03-12T11:08:30.871Z,9.70
2024-03-12T11:10:31.887Z,9.60
2024-03-12T11:12:32.256Z,9.70
2024-03-12T11:14:32.539Z,9.30
2024-03-12T11:16:32.860Z,9.50
2024-03-12T11:18:33.200Z,10.20
2024-03-12T11:20:33.503Z,10.00
2024-03-12T11:22:33.883Z,10.80
2024-03-12T11:24:34.207Z,10.40
2024-03-12T11:26:36.414Z,10.10
2024-03-12T11:28:37.100Z,10.20
2024-03-12T11:30:37.441Z,10.40
2024-03-12T11:32:37.732Z,10.00
2024-03-12T11:34:38.080Z,10.40
2024-03-12T11:36:38.384Z,10.70
2024-03-12T11:38:38.787Z,9.90
2024-03-12T11:40:39.568Z,10.80
2024-03-12T11:42:40.083Z,11.40
2024-03-12T11:44:40.451Z,10.90
2024-03-12T11:46:40.759Z,13.10
2024-03-12T11:48:41.025Z,14.40
2024-03-12T11:50:41.312Z,14.70
2024-03-12T11:52:41.586Z,13.10
2024-03-12T11:54:42.210Z,13.90
2024-03-12T11:56:42.627Z,13.80
2024-03-12T11:58:42.960Z,13.10
2024-03-12T12:00:43.325Z,15.40
2024-03-12T12:02:43.628Z,15.70
2024-03-12T12:04:44.026Z,16.60
2024-03-12T12:06:44.386Z,18.40
2024-03-12T12:08:53.076Z,18.70
2024-03-12T12:10:49.908Z,19.60
2024-03-12T12:12:50.279Z,19.90
2024-03-12T12:14:50.878Z,22.00
2024-03-12T12:16:54.052Z,19.50
2024-03-12T12:18:54.674Z,21.80
2024-03-12T12:20:54.952Z,22.60
2024-03-12T12:22:55.216Z,24.40
2024-03-12T12:24:55.554Z,24.00
2024-03-12T12:26:55.940Z,22.60
2024-03-12T12:28:56.188Z,23.70
2024-03-12T12:30:56.571Z,22.60
2024-03-12T12:32:56.935Z,22.30
2024-03-12T12:34:57.207Z,21.70
2024-03-12T12:37:54.303Z,22.00
2024-03-12T12:39:54.904Z,21.60
2024-03-12T12:41:57.265Z,19.40
2024-03-12T12:43:57.914Z,19.00
2024-03-12T12:45:58.700Z,20.10
2024-03-12T12:47:59.109Z,20.40
2024-03-12T12:50:40.992Z,22.80
2024-03-12T12:52:41.329Z,21.70
2024-03-12T12:54:43.121Z,21.20
2024-03-12T12:56:44.424Z,21.40
2024-03-12T12:58:44.983Z,21.70
2024-03-12T13:00:50.235Z,21.40
2024-03-12T13:02:50.597Z,21.70
2024-03-12T13:04:50.877Z,22.00
2024-03-12T13:06:51.505Z,21.80
2024-03-12T13:08:51.782Z,21.60
2024-03-12T13:10:52.171Z,22.00
2024-03-12T13:12:52.446Z,22.20
2024-03-12T13:14:52.787Z,21.80
2024-03-12T13:16:53.123Z,20.90
2024-03-12T13:18:53.726Z,21.40
2024-03-12T13:20:58.623Z,21.30
2024-03-12T13:22:58.942Z,19.90
2024-03-12T13:24:59.232Z,22.50
2024-03-12T13:26:59.667Z,21.00
2024-03-12T13:29:00.058Z,19.70
2024-03-12T13:31:00.409Z,20.10
2024-03-12T13:33:00.776Z,20.10
2024-03-12T13:35:01.065Z,20.40
2024-03-12T13:37:01.339Z,19.10
2024-03-12T13:39:01.679Z,19.10
2024-03-12T13:41:02.173Z,20.60
2024-03-12T13:43:02.513Z,20.10
2024-03-12T13:45:02.818Z,20.60
2024-03-12T13:47:03.203Z,20.20
2024-03-12T13:49:03.580Z,20.20
2024-03-12T13:51:03.905Z,19.60
2024-03-12T13:53:04.194Z,19.60
2024-03-12T13:55:04.538Z,20.40
2024-03-12T13:57:04.771Z,18.90
2024-03-12T13:59:06.209Z,19.80
2024-03-12T14:01:06.714Z,21.00
2024-03-12T14:03:07.013Z,21.10
2024-03-12T14:05:07.350Z,21.60
2024-03-12T14:07:07.690Z,20.00
2024-03-12T14:09:08.001Z,17.80
2024-03-12T14:11:08.284Z,15.30
2024-03-12T14:13:08.582Z,15.00
2024-03-12T14:15:08.891Z,16.10
2024-03-12T14:17:09.185Z,16.00
2024-03-12T14:19:09.546Z,16.20
2024-03-12T14:21:14.690Z,17.00
2024-03-12T14:23:14.935Z,17.80
2024-03-12T14:25:15.331Z,18.40
2024-03-12T14:27:15.641Z,18.00
2024-03-12T14:29:15.919Z,17.70
2024-03-12T14:31:16.458Z,18.00
2024-03-12T14:33:16.819Z,18.30
2024-03-12T14:35:17.065Z,18.40
2024-03-12T14:37:17.496Z,17.60
2024-03-12T14:39:17.771Z,18.30
2024-03-12T14:41:18.166Z,18.30
2024-03-12T14:43:18.584Z,18.40
2024-03-12T14:45:18.936Z,18.80
2024-03-12T14:47:21.137Z,18.60
2024-03-12T14:49:21.699Z,18.60
2024-03-12T14:51:22.033Z,18.30
2024-03-12T14:53:22.648Z,18.50
2024-03-12T14:55:23.106Z,18.80
2024-03-12T14:57:23.460Z,18.20
2024-03-12T14:59:23.745Z,18.90
2024-03-12T15:01:24.184Z,19.00
2024-03-12T15:03:24.582Z,19.50
2024-03-12T15:05:24.978Z,19.60
2024-03-12T15:07:25.301Z,19.10
2024-03-12T15:09:25.573Z,18.70
2024-03-12T15:11:26.055Z,19.90
2024-03-12T15:13:27.163Z,20.00
2024-03-12T15:15:27.445Z,19.70
2024-03-12T15:17:27.771Z,19.10
2024-03-12T15:19:28.087Z,18.80
2024-03-12T15:21:28.386Z,19.50
2024-03-12T15:23:28.760Z,17.90
2024-03-12T15:25:29.423Z,17.10
2024-03-12T15:27:29.802Z,17.60
2024-03-12T15:29:30.182Z,16.90
2024-03-12T15:31:30.664Z,17.10
2024-03-12T15:33:31.032Z,17.40
2024-03-12T15:35:31.313Z,16.40
2024-03-12T15:37:31.604Z,17.60
2024-03-12T15:39:32.128Z,16.70
2024-03-12T15:41:32.518Z,16.70
2024-03-12T15:43:32.791Z,17.10
2024-03-12T15:45:33.138Z,16.80
2024-03-12T15:47:33.393Z,17.40
2024-03-12T15:49:33.784Z,17.20
2024-03-12T15:51:34.577Z,17.50
2024-03-12T15:55:06.668Z,16.20
2024-03-12T15:57:07.014Z,16.40
2024-03-12T15:59:08.359Z,17.70
2024-03-12T16:01:08.823Z,17.00
2024-03-12T16:03:09.184Z,16.80
2024-03-12T16:05:09.582Z,17.30
2024-03-12T16:07:10.386Z,17.60
2024-03-12T16:09:10.843Z,17.50
2024-03-12T16:11:11.356Z,17.40
2024-03-12T16:13:11.761Z,17.70
2024-03-12T16:15:12.331Z,18.30
2024-03-12T16:17:13.223Z,19.40
2024-03-12T16:19:13.866Z,18.40
2024-03-12T16:21:14.220Z,18.80
2024-03-12T16:23:14.579Z,18.80
2024-03-12T16:25:15.012Z,19.30
2024-03-12T16:27:15.353Z,18.80
2024-03-12T16:29:15.707Z,18.40
2024-03-12T16:31:16.051Z,18.30
2024-03-12T16:33:16.393Z,18.00
2024-03-12T16:35:17.098Z,17.40
2024-03-12T16:37:17.578Z,17.30
2024-03-12T16:39:17.920Z,17.70
2024-03-12T16:41:18.235Z,18.60
2024-03-12T16:43:18.609Z,19.30
2024-03-12T16:45:18.993Z,19.00
2024-03-12T16:47:19.389Z,19.30
2024-03-12T16:49:19.728Z,19.90
2024-03-12T16:51:20.054Z,19.00
2024-03-12T16:53:20.403Z,19.90
2024-03-12T16:55:20.950Z,19.90
2024-03-12T16:57:21.293Z,20.10
2024-03-12T16:59:21.603Z,20.20
2024-03-12T17:01:22.091Z,19.40
2024-03-12T17:04:13.218Z,22.00
2024-03-12T17:06:13.778Z,21.70
2024-03-12T17:08:14.192Z,21.30
2024-03-12T17:10:14.770Z,20.70
2024-03-12T17:12:15.416Z,20.80
2024-03-12T17:14:22.723Z,21.00
2024-03-12T17:16:21.311Z,22.00
2024-03-12T17:18:21.993Z,21.90
2024-03-12T17:20:22.461Z,22.30
2024-03-12T17:22:22.778Z,22.90
2024-03-12T17:24:23.155Z,22.90
2024-03-12T17:26:23.450Z,22.80
2024-03-12T17:28:23.980Z,23.90
2024-03-12T17:30:24.333Z,22.10
2024-03-12T17:32:24.701Z,22.30
2024-03-12T17:34:25.008Z,22.00
2024-03-12T17:36:25.311Z,22.10
2024-03-12T17:38:25.569Z,22.80
2024-03-12T17:40:26.027Z,21.90
2024-03-12T17:42:26.508Z,22.40
2024-03-12T17:44:26.834Z,21.90
2024-03-12T17:46:27.194Z,22.00
2024-03-12T17:48:27.462Z,21.20
2024-03-12T17:50:27.761Z,22.60
2024-03-12T17:52:28.103Z,22.30
2024-03-12T17:54:28.416Z,22.00
2024-03-12T17:57:12.426Z,22.30
2024-03-12T17:59:14.676Z,23.60
2024-03-12T18:01:17.048Z,22.60
2024-03-12T18:03:17.372Z,24.50
2024-03-12T18:05:17.650Z,23.70
2024-03-12T18:07:18.028Z,23.10
2024-03-12T18:09:18.422Z,24.70
2024-03-12T18:11:18.759Z,23.70
2024-03-12T18:13:24.624Z,24.00
2024-03-12T18:15:25.885Z,24.40
2024-03-12T18:18:13.143Z,26.10
2024-03-12T18:20:13.439Z,27.80
2024-03-12T18:22:13.798Z,28.10
2024-03-12T18:24:14.128Z,28.00
2024-03-12T18:26:15.043Z,30.10
2024-03-12T18:28:15.428Z,29.70
2024-03-12T18:30:15.881Z,29.40
2024-03-12T18:32:16.235Z,29.90
2024-03-12T18:34:16.706Z,32.70
2024-03-12T18:36:16.989Z,32.40
2024-03-12T18:38:17.303Z,34.70
2024-03-12T18:40:17.693Z,37.00
2024-03-12T18:42:17.975Z,37.60
2024-03-12T18:44:18.308Z,38.70
2024-03-12T18:46:18.585Z,40.70
2024-03-12T18:48:18.901Z,40.10
2024-03-12T18:50:19.225Z,40.90
2024-03-12T18:52:19.617Z,42.10
2024-03-12T18:54:19.983Z,42.20
2024-03-12T18:56:20.316Z,42.60
2024-03-12T18:58:20.783Z,43.70
2024-03-12T19:02:21.682Z,44.40
2024-03-12T19:04:22.095Z,44.40
2024-03-12T19:06:27.064Z,45.40
2024-03-12T19:08:27.574Z,45.20
2024-03-12T19:10:27.947Z,45.80
2024-03-12T19:12:28.271Z,46.30
2024-03-12T19:14:28.558Z,46.00
2024-03-12T19:16:28.930Z,46.50
2024-03-12T19:18:29.368Z,46.10
2024-03-12T19:20:29.612Z,45.80
2024-03-12T19:22:30.214Z,46.00
2024-03-12T19:24:30.624Z,44.40
2024-03-12T19:26:30.912Z,45.00
2024-03-12T19:28:31.318Z,44.40
2024-03-12T19:30:31.650Z,44.10
2024-03-12T19:32:32.672Z,41.90
2024-03-12T19:34:35.664Z,43.40
2024-03-12T19:36:36.616Z,41.20
2024-03-12T19:38:37.015Z,41.90
2024-03-12T19:40:37.621Z,40.10
2024-03-12T19:42:38.163Z,40.20
2024-03-12T19:45:20.859Z,38.00
2024-03-12T19:47:21.194Z,39.90
2024-03-12T19:49:21.593Z,39.60
2024-03-12T19:51:21.891Z,38.50
2024-03-12T19:53:22.232Z,36.50
2024-03-12T19:55:22.631Z,36.70
2024-03-12T19:57:23.050Z,37.30
2024-03-12T19:59:23.403Z,38.00
2024-03-12T20:01:25.407Z,37.30
2024-03-12T20:03:27.714Z,38.60
2024-03-12T20:05:28.038Z,38.80
2024-03-12T20:07:28.441Z,38.30
2024-03-12T20:09:28.719Z,37.60
2024-03-12T20:11:29.112Z,37.20
2024-03-12T20:13:29.575Z,37.10
2024-03-12T20:15:29.911Z,37.50
2024-03-12T20:17:30.232Z,36.50
2024-03-12T20:20:13.821Z,38.00
2024-03-12T20:22:14.279Z,37.20
2024-03-12T20:24:14.628Z,38.00
2024-03-12T20:26:14.950Z,38.40
2024-03-12T20:28:15.487Z,39.30
2024-03-12T20:30:15.895Z,38.80
2024-03-12T20:32:16.460Z,39.60
2024-03-12T20:34:16.938Z,39.10
2024-03-12T20:36:17.393Z,40.10
2024-03-12T20:38:17.741Z,38.40
2024-03-12T20:40:18.888Z,38.70
2024-03-12T20:42:19.295Z,39.10
2024-03-12T20:44:19.679Z,39.60
2024-03-12T20:46:19.995Z,38.50
2024-03-12T20:48:20.381Z,37.40
2024-03-12T20:50:20.662Z,37.40
2024-03-12T20:52:21.759Z,38.00
2024-03-12T20:54:23.877Z,36.90
2024-03-12T20:56:24.193Z,37.10
2024-03-12T20:58:24.695Z,36.50
2024-03-12T21:00:25.353Z,36.60
2024-03-12T21:02:25.767Z,36.50
2024-03-12T21:06:38.002Z,36.70
2024-03-12T21:09:22.717Z,34.90
2024-03-12T21:11:23.009Z,35.60
2024-03-12T21:14:34.710Z,35.10
2024-03-12T21:16:39.842Z,35.20
2024-03-12T21:20:40.997Z,34.70
2024-03-12T21:22:41.541Z,35.20
2024-03-12T21:24:42.035Z,34.40
2024-03-12T21:26:42.584Z,34.60
2024-03-12T21:28:43.565Z,34.10
2024-03-12T21:30:43.865Z,34.40
2024-03-12T21:32:44.205Z,34.60
2024-03-12T21:34:44.464Z,33.70
2024-03-12T21:36:45.308Z,34.90
2024-03-12T21:38:45.643Z,34.50
2024-03-12T21:40:45.892Z,34.30
2024-03-12T21:42:46.220Z,34.40
2024-03-12T21:44:46.521Z,33.70
2024-03-12T21:46:46.802Z,33.60
2024-03-12T21:48:47.129Z,34.50
2024-03-12T21:50:47.499Z,34.30
2024-03-12T21:52:47.774Z,34.80
2024-03-12T21:54:48.265Z,34.10
2024-03-12T21:56:48.587Z,34.60
2024-03-12T21:58:49.027Z,35.00
2024-03-12T22:00:49.401Z,35.10
2024-03-12T22:02:50.272Z,35.20
2024-03-12T22:11:20.901Z,39.30
2024-03-12T22:13:28.426Z,37.80
2024-03-12T22:15:26.398Z,37.40
2024-03-12T22:17:26.795Z,37.50
2024-03-12T22:19:27.070Z,35.70
2024-03-12T22:21:27.504Z,35.30
2024-03-12T22:23:27.848Z,35.30
2024-03-12T22:25:28.244Z,35.90
2024-03-12T22:27:28.561Z,35.50
2024-03-12T22:29:28.957Z,34.50
2024-03-12T22:31:29.300Z,33.90
2024-03-12T22:33:29.633Z,34.10
2024-03-12T22:35:29.950Z,32.30
2024-03-12T22:37:30.386Z,33.10
2024-03-12T22:39:30.671Z,30.80
2024-03-12T22:41:30.980Z,30.20
2024-03-12T22:43:31.427Z,30.10
2024-03-12T22:45:31.683Z,30.10
2024-03-12T22:47:32.143Z,29.40
2024-03-12T22:49:32.420Z,28.70
2024-03-12T22:51:32.734Z,27.60
2024-03-12T22:53:33.334Z,27.80
2024-03-12T22:55:33.830Z,28.10
2024-03-12T22:57:34.109Z,28.30
2024-03-12T22:59:34.426Z,27.40
2024-03-12T23:01:34.875Z,28.80
2024-03-12T23:03:35.252Z,30.40
2024-03-12T23:05:35.780Z,30.00
2024-03-12T23:07:36.075Z,29.30
2024-03-12T23:09:36.384Z,30.70
2024-03-12T23:11:36.757Z,29.20
2024-03-12T23:13:37.068Z,30.20
2024-03-12T23:15:37.357Z,30.60
2024-03-12T23:17:37.821Z,30.10
2024-03-12T23:19:38.115Z,29.10
2024-03-12T23:21:38.413Z,29.90
2024-03-12T23:23:38.694Z,28.90
2024-03-12T23:25:39.182Z,29.50
2024-03-12T23:27:39.463Z,29.30
2024-03-12T23:29:39.725Z,29.00
2024-03-12T23:32:25.895Z,27.80
2024-03-12T23:34:26.476Z,28.50
2024-03-12T23:40:43.029Z,28.90
2024-03-12T23:47:22.853Z,26.30
2024-03-12T23:49:23.260Z,26.00
2024-03-12T23:54:04.074Z,23.80
2024-03-12T23:56:04.352Z,23.30
2024-03-12T23:58:04.746Z,19.70
